sensor_id;sensor_type;location;lat;lon;timestamp;pressure;altitude;pressure_sealevel;temperature;humidity
19286;BME280;9776;50.798;6.430;2023-11-19T00:00:17;99678.31;;;12.79;86.19
19286;BME280;9776;50.798;6.430;2023-11-19T00:02:44;99672.88;;;12.80;86.34
19286;BME280;9776;50.798;6.430;2023-11-19T00:05:10;99665.56;;;12.82;86.09
19286;BME280;9776;50.798;6.430;2023-11-19T00:07:40;99664.56;;;12.83;86.23
19286;BME280;9776;50.798;6.430;2023-11-19T00:10:08;99671.69;;;12.83;86.53
19286;BME280;9776;50.798;6.430;2023-11-19T00:12:37;99678.63;;;12.84;86.31
19286;BME280;9776;50.798;6.430;2023-11-19T00:15:06;99674.13;;;12.84;86.59
19286;BME280;9776;50.798;6.430;2023-11-19T00:17:37;99675.16;;;12.83;86.52
19286;BME280;9776;50.798;6.430;2023-11-19T00:20:05;99679.28;;;12.86;86.57
19286;BME280;9776;50.798;6.430;2023-11-19T00:22:33;99676.44;;;12.87;86.70
19286;BME280;9776;50.798;6.430;2023-11-19T00:25:01;99673.63;;;12.89;86.64
19286;BME280;9776;50.798;6.430;2023-11-19T00:27:29;99664.84;;;12.88;86.48
19286;BME280;9776;50.798;6.430;2023-11-19T00:29:58;99672.78;;;12.88;86.86
19286;BME280;9776;50.798;6.430;2023-11-19T00:32:25;99663.03;;;12.89;86.92
19286;BME280;9776;50.798;6.430;2023-11-19T00:36:28;99663.19;;;12.87;86.75
19286;BME280;9776;50.798;6.430;2023-11-19T00:38:43;99666.66;;;12.88;86.61
19286;BME280;9776;50.798;6.430;2023-11-19T00:41:34;99668.31;;;12.89;86.94
19286;BME280;9776;50.798;6.430;2023-11-19T00:44:03;99672.91;;;12.95;86.79
19286;BME280;9776;50.798;6.430;2023-11-19T00:46:31;99671.88;;;12.96;86.99
19286;BME280;9776;50.798;6.430;2023-11-19T00:48:58;99664.59;;;12.98;86.78
19286;BME280;9776;50.798;6.430;2023-11-19T00:51:26;99661.59;;;13.01;86.78
19286;BME280;9776;50.798;6.430;2023-11-19T00:53:56;99667.72;;;13.01;87.09
19286;BME280;9776;50.798;6.430;2023-11-19T00:56:22;99640.03;;;13.04;86.97
19286;BME280;9776;50.798;6.430;2023-11-19T00:58:51;99649.78;;;13.03;86.92
19286;BME280;9776;50.798;6.430;2023-11-19T01:01:17;99639.38;;;13.02;87.14
19286;BME280;9776;50.798;6.430;2023-11-19T01:03:44;99635.53;;;13.04;87.43
19286;BME280;9776;50.798;6.430;2023-11-19T01:06:11;99642.00;;;13.02;87.30
19286;BME280;9776;50.798;6.430;2023-11-19T01:08:39;99641.31;;;13.08;87.54
19286;BME280;9776;50.798;6.430;2023-11-19T01:11:06;99637.00;;;13.07;87.26
19286;BME280;9776;50.798;6.430;2023-11-19T01:13:33;99639.66;;;13.07;87.62
19286;BME280;9776;50.798;6.430;2023-11-19T01:16:01;99643.31;;;13.06;87.24
19286;BME280;9776;50.798;6.430;2023-11-19T01:18:28;99622.94;;;13.06;87.50
19286;BME280;9776;50.798;6.430;2023-11-19T01:20:55;99626.78;;;13.04;87.43
19286;BME280;9776;50.798;6.430;2023-11-19T01:23:22;99630.78;;;13.00;87.78
19286;BME280;9776;50.798;6.430;2023-11-19T01:25:49;99631.34;;;12.95;87.83
19286;BME280;9776;50.798;6.430;2023-11-19T01:28:15;99637.38;;;12.89;87.79
19286;BME280;9776;50.798;6.430;2023-11-19T01:30:42;99640.53;;;12.85;88.12
19286;BME280;9776;50.798;6.430;2023-11-19T01:33:10;99646.03;;;12.83;88.01
19286;BME280;9776;50.798;6.430;2023-11-19T01:35:37;99653.69;;;12.78;88.16
19286;BME280;9776;50.798;6.430;2023-11-19T01:38:04;99651.41;;;12.75;88.47
19286;BME280;9776;50.798;6.430;2023-11-19T01:40:31;99647.47;;;12.71;88.50
19286;BME280;9776;50.798;6.430;2023-11-19T01:42:58;99650.09;;;12.71;88.68
19286;BME280;9776;50.798;6.430;2023-11-19T01:45:27;99645.44;;;12.73;88.22
19286;BME280;9776;50.798;6.430;2023-11-19T01:47:56;99640.34;;;12.72;88.57
19286;BME280;9776;50.798;6.430;2023-11-19T01:50:24;99628.56;;;12.74;88.44
19286;BME280;9776;50.798;6.430;2023-11-19T01:52:52;99634.22;;;12.71;88.30
19286;BME280;9776;50.798;6.430;2023-11-19T01:55:19;99633.75;;;12.68;88.35
19286;BME280;9776;50.798;6.430;2023-11-19T01:57:47;99641.88;;;12.66;88.48
19286;BME280;9776;50.798;6.430;2023-11-19T02:00:15;99635.75;;;12.66;88.46
19286;BME280;9776;50.798;6.430;2023-11-19T02:02:42;99626.16;;;12.65;88.30
19286;BME280;9776;50.798;6.430;2023-11-19T02:05:11;99619.06;;;12.65;88.44
19286;BME280;9776;50.798;6.430;2023-11-19T02:07:39;99621.06;;;12.63;88.40
19286;BME280;9776;50.798;6.430;2023-11-19T02:10:07;99597.88;;;12.65;88.50
19286;BME280;9776;50.798;6.430;2023-11-19T02:12:38;99598.88;;;12.64;88.64
19286;BME280;9776;50.798;6.430;2023-11-19T02:15:08;99588.13;;;12.66;88.50
19286;BME280;9776;50.798;6.430;2023-11-19T02:17:35;99585.47;;;12.66;88.47
19286;BME280;9776;50.798;6.430;2023-11-19T02:20:03;99589.75;;;12.67;88.18
19286;BME280;9776;50.798;6.430;2023-11-19T02:22:32;99589.94;;;12.65;88.56
19286;BME280;9776;50.798;6.430;2023-11-19T02:25:04;99576.69;;;12.65;88.35
19286;BME280;9776;50.798;6.430;2023-11-19T02:27:44;99595.41;;;12.64;88.09
19286;BME280;9776;50.798;6.430;2023-11-19T02:30:12;99590.28;;;12.62;88.34
19286;BME280;9776;50.798;6.430;2023-11-19T02:32:40;99598.22;;;12.62;88.28
19286;BME280;9776;50.798;6.430;2023-11-19T02:35:08;99598.13;;;12.56;88.24
19286;BME280;9776;50.798;6.430;2023-11-19T02:37:35;99588.34;;;12.56;88.34
19286;BME280;9776;50.798;6.430;2023-11-19T02:40:02;99595.31;;;12.57;88.27
19286;BME280;9776;50.798;6.430;2023-11-19T02:42:30;99590.84;;;12.58;88.42
19286;BME280;9776;50.798;6.430;2023-11-19T02:44:58;99579.91;;;12.61;87.99
19286;BME280;9776;50.798;6.430;2023-11-19T02:47:25;99574.97;;;12.58;87.97
19286;BME280;9776;50.798;6.430;2023-11-19T02:49:53;99572.47;;;12.56;88.36
19286;BME280;9776;50.798;6.430;2023-11-19T02:52:19;99577.97;;;12.55;88.29
19286;BME280;9776;50.798;6.430;2023-11-19T02:54:46;99588.19;;;12.58;88.03
19286;BME280;9776;50.798;6.430;2023-11-19T02:57:13;99579.44;;;12.57;88.18
19286;BME280;9776;50.798;6.430;2023-11-19T02:59:40;99586.53;;;12.57;87.88
19286;BME280;9776;50.798;6.430;2023-11-19T03:02:10;99583.41;;;12.53;88.01
19286;BME280;9776;50.798;6.430;2023-11-19T03:04:37;99582.78;;;12.51;87.93
19286;BME280;9776;50.798;6.430;2023-11-19T03:07:05;99588.44;;;12.48;88.17
19286;BME280;9776;50.798;6.430;2023-11-19T03:09:32;99596.38;;;12.48;87.96
19286;BME280;9776;50.798;6.430;2023-11-19T03:12:00;99587.97;;;12.44;88.26
19286;BME280;9776;50.798;6.430;2023-11-19T03:14:27;99592.63;;;12.42;88.33
19286;BME280;9776;50.798;6.430;2023-11-19T03:16:53;99562.88;;;12.40;88.36
19286;BME280;9776;50.798;6.430;2023-11-19T03:19:21;99564.22;;;12.36;88.09
19286;BME280;9776;50.798;6.430;2023-11-19T03:21:48;99570.16;;;12.38;88.35
19286;BME280;9776;50.798;6.430;2023-11-19T03:24:15;99564.88;;;12.38;88.16
19286;BME280;9776;50.798;6.430;2023-11-19T03:26:42;99577.75;;;12.41;88.22
19286;BME280;9776;50.798;6.430;2023-11-19T03:29:09;99581.41;;;12.40;88.17
19286;BME280;9776;50.798;6.430;2023-11-19T03:31:36;99584.13;;;12.47;88.12
19286;BME280;9776;50.798;6.430;2023-11-19T03:34:03;99582.25;;;12.56;87.49
19286;BME280;9776;50.798;6.430;2023-11-19T03:36:34;99596.78;;;12.60;87.26
19286;BME280;9776;50.798;6.430;2023-11-19T03:39:01;99597.03;;;12.65;87.36
19286;BME280;9776;50.798;6.430;2023-11-19T03:41:29;99589.41;;;12.70;87.21
19286;BME280;9776;50.798;6.430;2023-11-19T03:43:56;99601.97;;;12.68;87.46
19286;BME280;9776;50.798;6.430;2023-11-19T03:46:22;99583.16;;;12.63;87.59
19286;BME280;9776;50.798;6.430;2023-11-19T03:48:50;99598.44;;;12.61;87.83
19286;BME280;9776;50.798;6.430;2023-11-19T03:51:16;99605.69;;;12.59;87.81
19286;BME280;9776;50.798;6.430;2023-11-19T03:53:45;99605.34;;;12.62;87.79
19286;BME280;9776;50.798;6.430;2023-11-19T03:56:12;99601.50;;;12.64;87.95
19286;BME280;9776;50.798;6.430;2023-11-19T03:58:38;99601.88;;;12.61;87.64
19286;BME280;9776;50.798;6.430;2023-11-19T04:01:06;99595.78;;;12.61;88.05
19286;BME280;9776;50.798;6.430;2023-11-19T04:03:37;99590.38;;;12.54;87.81
19286;BME280;9776;50.798;6.430;2023-11-19T04:06:05;99592.75;;;12.49;88.14
19286;BME280;9776;50.798;6.430;2023-11-19T04:08:32;99595.56;;;12.47;88.10
19286;BME280;9776;50.798;6.430;2023-11-19T04:11:03;99594.28;;;12.43;88.24
19286;BME280;9776;50.798;6.430;2023-11-19T04:13:29;99582.88;;;12.43;88.25
19286;BME280;9776;50.798;6.430;2023-11-19T04:15:56;99594.63;;;12.40;88.24
19286;BME280;9776;50.798;6.430;2023-11-19T04:18:23;99600.09;;;12.39;88.59
19286;BME280;9776;50.798;6.430;2023-11-19T04:20:50;99599.47;;;12.37;88.51
19286;BME280;9776;50.798;6.430;2023-11-19T04:23:16;99603.28;;;12.34;88.27
19286;BME280;9776;50.798;6.430;2023-11-19T04:25:43;99603.44;;;12.33;88.46
19286;BME280;9776;50.798;6.430;2023-11-19T04:28:11;99605.28;;;12.32;88.23
19286;BME280;9776;50.798;6.430;2023-11-19T04:30:38;99591.41;;;12.30;88.29
19286;BME280;9776;50.798;6.430;2023-11-19T04:33:05;99606.66;;;12.28;88.35
19286;BME280;9776;50.798;6.430;2023-11-19T04:35:32;99602.00;;;12.30;88.36
19286;BME280;9776;50.798;6.430;2023-11-19T04:37:58;99594.25;;;12.29;87.93
19286;BME280;9776;50.798;6.430;2023-11-19T04:40:25;99594.88;;;12.31;88.13
19286;BME280;9776;50.798;6.430;2023-11-19T04:42:52;99599.06;;;12.25;87.98
19286;BME280;9776;50.798;6.430;2023-11-19T04:45:20;99605.53;;;12.23;87.83
19286;BME280;9776;50.798;6.430;2023-11-19T04:47:47;99596.47;;;12.17;87.79
19286;BME280;9776;50.798;6.430;2023-11-19T04:50:13;99608.06;;;12.16;87.99
19286;BME280;9776;50.798;6.430;2023-11-19T04:52:40;99607.56;;;12.13;87.88
19286;BME280;9776;50.798;6.430;2023-11-19T04:55:08;99606.31;;;12.09;87.60
19286;BME280;9776;50.798;6.430;2023-11-19T04:57:36;99619.69;;;12.07;87.71
19286;BME280;9776;50.798;6.430;2023-11-19T05:00:04;99620.72;;;12.06;87.64
19286;BME280;9776;50.798;6.430;2023-11-19T05:02:34;99623.34;;;12.06;87.78
19286;BME280;9776;50.798;6.430;2023-11-19T05:05:01;99620.03;;;12.04;87.69
19286;BME280;9776;50.798;6.430;2023-11-19T05:07:29;99629.78;;;12.04;87.50
19286;BME280;9776;50.798;6.430;2023-11-19T05:09:55;99619.41;;;12.02;87.27
19286;BME280;9776;50.798;6.430;2023-11-19T05:12:22;99620.38;;;12.01;87.30
19286;BME280;9776;50.798;6.430;2023-11-19T05:14:49;99625.69;;;12.01;87.16
19286;BME280;9776;50.798;6.430;2023-11-19T05:17:17;99633.81;;;12.00;86.95
19286;BME280;9776;50.798;6.430;2023-11-19T05:19:46;99635.63;;;11.99;86.91
19286;BME280;9776;50.798;6.430;2023-11-19T05:22:13;99633.31;;;11.96;86.78
19286;BME280;9776;50.798;6.430;2023-11-19T05:24:40;99639.59;;;11.95;86.70
19286;BME280;9776;50.798;6.430;2023-11-19T05:27:07;99634.97;;;11.97;86.66
19286;BME280;9776;50.798;6.430;2023-11-19T05:29:34;99633.81;;;12.00;86.37
19286;BME280;9776;50.798;6.430;2023-11-19T05:32:00;99633.81;;;12.00;86.27
19286;BME280;9776;50.798;6.430;2023-11-19T05:34:27;99647.84;;;12.00;86.01
19286;BME280;9776;50.798;6.430;2023-11-19T05:36:56;99639.09;;;12.00;85.47
19286;BME280;9776;50.798;6.430;2023-11-19T05:39:23;99639.25;;;11.98;85.60
19286;BME280;9776;50.798;6.430;2023-11-19T05:41:50;99635.97;;;11.96;85.24
19286;BME280;9776;50.798;6.430;2023-11-19T05:44:17;99645.09;;;11.93;85.16
19286;BME280;9776;50.798;6.430;2023-11-19T05:46:44;99638.97;;;11.93;85.11
19286;BME280;9776;50.798;6.430;2023-11-19T05:49:11;99641.78;;;11.91;85.18
19286;BME280;9776;50.798;6.430;2023-11-19T05:51:38;99638.13;;;11.92;84.67
19286;BME280;9776;50.798;6.430;2023-11-19T05:54:08;99649.19;;;11.96;84.65
19286;BME280;9776;50.798;6.430;2023-11-19T05:56:35;99638.25;;;11.99;84.35
19286;BME280;9776;50.798;6.430;2023-11-19T05:59:05;99652.59;;;12.05;84.30
19286;BME280;9776;50.798;6.430;2023-11-19T06:01:40;99655.19;;;12.13;83.86
19286;BME280;9776;50.798;6.430;2023-11-19T06:04:07;99656.16;;;12.20;83.68
19286;BME280;9776;50.798;6.430;2023-11-19T06:06:34;99648.84;;;12.22;83.50
19286;BME280;9776;50.798;6.430;2023-11-19T06:09:00;99668.00;;;12.24;83.36
19286;BME280;9776;50.798;6.430;2023-11-19T06:11:33;99659.09;;;12.25;83.39
19286;BME280;9776;50.798;6.430;2023-11-19T06:14:01;99664.72;;;12.22;83.31
19286;BME280;9776;50.798;6.430;2023-11-19T06:16:31;99665.28;;;12.17;83.36
19286;BME280;9776;50.798;6.430;2023-11-19T06:18:57;99671.53;;;12.16;83.24
19286;BME280;9776;50.798;6.430;2023-11-19T06:21:24;99667.44;;;12.14;83.23
19286;BME280;9776;50.798;6.430;2023-11-19T06:23:51;99667.91;;;12.17;83.13
19286;BME280;9776;50.798;6.430;2023-11-19T06:26:18;99666.91;;;12.18;83.24
19286;BME280;9776;50.798;6.430;2023-11-19T06:28:48;99666.25;;;12.16;82.94
19286;BME280;9776;50.798;6.430;2023-11-19T06:31:15;99655.19;;;12.13;83.02
19286;BME280;9776;50.798;6.430;2023-11-19T06:33:42;99649.63;;;12.08;82.70
19286;BME280;9776;50.798;6.430;2023-11-19T06:36:14;99650.59;;;12.07;82.70
19286;BME280;9776;50.798;6.430;2023-11-19T06:38:41;99657.41;;;12.01;82.84
19286;BME280;9776;50.798;6.430;2023-11-19T06:41:08;99662.41;;;11.96;82.73
19286;BME280;9776;50.798;6.430;2023-11-19T06:43:36;99673.19;;;11.94;82.50
19286;BME280;9776;50.798;6.430;2023-11-19T06:46:05;99673.53;;;11.91;82.57
19286;BME280;9776;50.798;6.430;2023-11-19T06:48:32;99682.78;;;11.87;82.33
19286;BME280;9776;50.798;6.430;2023-11-19T06:51:00;99687.25;;;11.87;82.44
19286;BME280;9776;50.798;6.430;2023-11-19T06:53:27;99678.34;;;11.88;82.06
19286;BME280;9776;50.798;6.430;2023-11-19T06:55:55;99677.69;;;11.86;81.91
19286;BME280;9776;50.798;6.430;2023-11-19T06:58:23;99664.47;;;11.86;81.91
19286;BME280;9776;50.798;6.430;2023-11-19T07:00:50;99670.75;;;11.85;81.79
19286;BME280;9776;50.798;6.430;2023-11-19T07:03:18;99669.44;;;11.81;81.69
19286;BME280;9776;50.798;6.430;2023-11-19T07:05:46;99680.34;;;11.86;81.49
19286;BME280;9776;50.798;6.430;2023-11-19T07:08:12;99664.09;;;11.89;81.15
19286;BME280;9776;50.798;6.430;2023-11-19T07:10:42;99665.41;;;11.93;80.81
19286;BME280;9776;50.798;6.430;2023-11-19T07:13:12;99666.03;;;11.95;80.95
19286;BME280;9776;50.798;6.430;2023-11-19T07:15:43;99664.38;;;12.02;80.27
19286;BME280;9776;50.798;6.430;2023-11-19T07:18:09;99674.41;;;12.07;80.27
19286;BME280;9776;50.798;6.430;2023-11-19T07:20:38;99688.47;;;12.07;79.74
19286;BME280;9776;50.798;6.430;2023-11-19T07:23:06;99675.44;;;12.06;79.75
19286;BME280;9776;50.798;6.430;2023-11-19T07:25:35;99687.28;;;12.10;79.63
19286;BME280;9776;50.798;6.430;2023-11-19T07:28:02;99696.34;;;12.15;79.53
19286;BME280;9776;50.798;6.430;2023-11-19T07:30:30;99694.19;;;12.19;79.81
19286;BME280;9776;50.798;6.430;2023-11-19T07:32:57;99707.53;;;12.25;79.62
19286;BME280;9776;50.798;6.430;2023-11-19T07:35:24;99703.72;;;12.28;79.50
19286;BME280;9776;50.798;6.430;2023-11-19T07:37:54;99713.19;;;12.22;79.62
19286;BME280;9776;50.798;6.430;2023-11-19T07:40:21;99726.34;;;12.30;79.36
19286;BME280;9776;50.798;6.430;2023-11-19T07:42:47;99728.72;;;12.48;79.36
19286;BME280;9776;50.798;6.430;2023-11-19T07:45:15;99736.25;;;12.59;78.92
19286;BME280;9776;50.798;6.430;2023-11-19T07:47:41;99732.97;;;12.57;78.59
19286;BME280;9776;50.798;6.430;2023-11-19T07:50:11;99731.56;;;12.46;78.83
19286;BME280;9776;50.798;6.430;2023-11-19T07:52:42;99715.06;;;12.36;79.03
19286;BME280;9776;50.798;6.430;2023-11-19T07:55:10;99716.78;;;12.29;79.27
19286;BME280;9776;50.798;6.430;2023-11-19T07:57:39;99718.47;;;12.22;79.20
19286;BME280;9776;50.798;6.430;2023-11-19T08:00:07;99734.41;;;12.14;79.25
19286;BME280;9776;50.798;6.430;2023-11-19T08:02:39;99739.00;;;12.12;79.60
19286;BME280;9776;50.798;6.430;2023-11-19T08:05:07;99733.09;;;12.10;79.37
19286;BME280;9776;50.798;6.430;2023-11-19T08:07:34;99742.84;;;12.10;79.31
19286;BME280;9776;50.798;6.430;2023-11-19T08:10:00;99741.22;;;12.09;79.02
19286;BME280;9776;50.798;6.430;2023-11-19T08:12:29;99748.31;;;12.08;79.11
19286;BME280;9776;50.798;6.430;2023-11-19T08:14:56;99748.78;;;12.12;78.71
19286;BME280;9776;50.798;6.430;2023-11-19T08:17:24;99748.78;;;12.12;78.91
19286;BME280;9776;50.798;6.430;2023-11-19T08:19:51;99737.38;;;12.11;78.62
19286;BME280;9776;50.798;6.430;2023-11-19T08:22:18;99736.38;;;12.12;78.30
19286;BME280;9776;50.798;6.430;2023-11-19T08:24:44;99742.34;;;12.14;78.04
19286;BME280;9776;50.798;6.430;2023-11-19T08:27:13;99741.50;;;12.14;77.75
19286;BME280;9776;50.798;6.430;2023-11-19T08:29:42;99730.91;;;12.14;77.73
19286;BME280;9776;50.798;6.430;2023-11-19T08:32:08;99729.94;;;12.15;77.86
19286;BME280;9776;50.798;6.430;2023-11-19T08:34:38;99726.13;;;12.17;77.74
19286;BME280;9776;50.798;6.430;2023-11-19T08:37:04;99727.28;;;12.15;77.34
19286;BME280;9776;50.798;6.430;2023-11-19T08:39:34;99732.22;;;12.18;77.36
19286;BME280;9776;50.798;6.430;2023-11-19T08:42:03;99737.53;;;12.18;77.04
19286;BME280;9776;50.798;6.430;2023-11-19T08:44:30;99740.81;;;12.20;76.73
19286;BME280;9776;50.798;6.430;2023-11-19T08:47:01;99729.88;;;12.23;76.72
19286;BME280;9776;50.798;6.430;2023-11-19T08:49:27;99733.34;;;12.23;76.28
19286;BME280;9776;50.798;6.430;2023-11-19T08:51:54;99732.00;;;12.27;76.22
19286;BME280;9776;50.798;6.430;2023-11-19T08:54:23;99732.00;;;12.27;75.99
19286;BME280;9776;50.798;6.430;2023-11-19T08:56:49;99745.50;;;12.32;75.71
19286;BME280;9776;50.798;6.430;2023-11-19T08:59:16;99743.53;;;12.34;75.66
19286;BME280;9776;50.798;6.430;2023-11-19T09:01:44;99744.03;;;12.38;75.81
19286;BME280;9776;50.798;6.430;2023-11-19T09:04:13;99740.34;;;12.39;75.24
19286;BME280;9776;50.798;6.430;2023-11-19T09:06:41;99731.91;;;12.43;75.10
19286;BME280;9776;50.798;6.430;2023-11-19T09:09:08;99741.31;;;12.46;75.11
19286;BME280;9776;50.798;6.430;2023-11-19T09:11:35;99726.91;;;12.48;75.06
19286;BME280;9776;50.798;6.430;2023-11-19T09:14:02;99729.34;;;12.50;74.80
19286;BME280;9776;50.798;6.430;2023-11-19T09:16:29;99732.97;;;12.57;74.43
19286;BME280;9776;50.798;6.430;2023-11-19T09:19:01;99727.94;;;12.62;74.15
19286;BME280;9776;50.798;6.430;2023-11-19T09:21:30;99725.78;;;12.66;74.04
19286;BME280;9776;50.798;6.430;2023-11-19T09:23:58;99716.84;;;12.67;73.64
19286;BME280;9776;50.798;6.430;2023-11-19T09:26:25;99720.28;;;12.67;73.50
19286;BME280;9776;50.798;6.430;2023-11-19T09:28:51;99726.25;;;12.69;73.27
19286;BME280;9776;50.798;6.430;2023-11-19T09:31:20;99734.28;;;12.76;72.67
19286;BME280;9776;50.798;6.430;2023-11-19T09:33:47;99723.34;;;12.79;72.52
19286;BME280;9776;50.798;6.430;2023-11-19T09:36:14;99726.31;;;12.84;72.46
19286;BME280;9776;50.798;6.430;2023-11-19T09:38:44;99742.63;;;12.87;72.27
19286;BME280;9776;50.798;6.430;2023-11-19T09:41:14;99730.69;;;12.91;72.14
19286;BME280;9776;50.798;6.430;2023-11-19T09:43:45;99722.19;;;12.96;72.07
19286;BME280;9776;50.798;6.430;2023-11-19T09:46:13;99720.22;;;12.98;72.18
19286;BME280;9776;50.798;6.430;2023-11-19T09:48:42;99729.63;;;13.00;71.94
19286;BME280;9776;50.798;6.430;2023-11-19T09:51:10;99726.44;;;13.05;72.21
19286;BME280;9776;50.798;6.430;2023-11-19T09:53:38;99728.75;;;13.08;71.73
19286;BME280;9776;50.798;6.430;2023-11-19T09:56:07;99736.34;;;13.11;71.82
19286;BME280;9776;50.798;6.430;2023-11-19T09:58:34;99716.25;;;13.17;71.61
19286;BME280;9776;50.798;6.430;2023-11-19T10:01:01;99720.00;;;13.22;71.36
19286;BME280;9776;50.798;6.430;2023-11-19T10:03:34;99697.81;;;13.23;71.01
19286;BME280;9776;50.798;6.430;2023-11-19T10:06:06;99711.69;;;13.25;70.98
19286;BME280;9776;50.798;6.430;2023-11-19T10:08:34;99708.88;;;13.27;70.68
19286;BME280;9776;50.798;6.430;2023-11-19T10:11:01;99705.88;;;13.30;70.20
19286;BME280;9776;50.798;6.430;2023-11-19T10:13:29;99715.53;;;13.37;70.40
19286;BME280;9776;50.798;6.430;2023-11-19T10:15:56;99710.72;;;13.41;69.87
19286;BME280;9776;50.798;6.430;2023-11-19T10:18:25;99710.97;;;13.46;69.57
19286;BME280;9776;50.798;6.430;2023-11-19T10:20:54;99713.63;;;13.60;69.18
19286;BME280;9776;50.798;6.430;2023-11-19T10:23:21;99688.09;;;13.74;68.86
19286;BME280;9776;50.798;6.430;2023-11-19T10:25:48;99689.47;;;13.85;68.63
19286;BME280;9776;50.798;6.430;2023-11-19T10:28:15;99696.03;;;13.89;68.43
19286;BME280;9776;50.798;6.430;2023-11-19T10:30:44;99706.47;;;13.90;68.63
19286;BME280;9776;50.798;6.430;2023-11-19T10:33:15;99701.78;;;13.92;68.68
19286;BME280;9776;50.798;6.430;2023-11-19T10:35:52;99704.91;;;13.96;68.39
19286;BME280;9776;50.798;6.430;2023-11-19T10:38:19;99706.78;;;14.16;68.27
19286;BME280;9776;50.798;6.430;2023-11-19T10:40:47;99707.59;;;15.02;66.41
19286;BME280;9776;50.798;6.430;2023-11-19T10:43:18;99697.38;;;16.15;63.59
19286;BME280;9776;50.798;6.430;2023-11-19T10:45:48;99694.03;;;17.06;60.75
19286;BME280;9776;50.798;6.430;2023-11-19T10:48:15;99698.22;;;17.79;58.71
19286;BME280;9776;50.798;6.430;2023-11-19T10:50:46;99713.44;;;18.61;56.71
19286;BME280;9776;50.798;6.430;2023-11-19T10:53:13;99705.91;;;19.25;55.21
19286;BME280;9776;50.798;6.430;2023-11-19T10:55:47;99702.84;;;19.47;54.20
19286;BME280;9776;50.798;6.430;2023-11-19T10:58:15;99705.16;;;19.37;54.10
19286;BME280;9776;50.798;6.430;2023-11-19T11:00:45;99700.19;;;18.97;55.00
19286;BME280;9776;50.798;6.430;2023-11-19T11:03:17;99710.06;;;18.72;55.40
19286;BME280;9776;50.798;6.430;2023-11-19T11:05:46;99728.31;;;18.06;56.29
19286;BME280;9776;50.798;6.430;2023-11-19T11:08:13;99734.19;;;17.37;57.99
19286;BME280;9776;50.798;6.430;2023-11-19T11:10:47;99724.78;;;16.69;58.88
19286;BME280;9776;50.798;6.430;2023-11-19T11:13:19;99727.63;;;16.55;59.70
19286;BME280;9776;50.798;6.430;2023-11-19T11:15:49;99718.63;;;16.88;59.08
19286;BME280;9776;50.798;6.430;2023-11-19T11:18:17;99715.94;;;17.41;57.98
19286;BME280;9776;50.798;6.430;2023-11-19T11:20:45;99707.38;;;17.96;57.22
19286;BME280;9776;50.798;6.430;2023-11-19T11:23:47;99710.53;;;18.25;56.30
19286;BME280;9776;50.798;6.430;2023-11-19T11:26:41;99699.59;;;18.95;54.87
19286;BME280;9776;50.798;6.430;2023-11-19T11:29:17;99723.03;;;18.93;54.79
19286;BME280;9776;50.798;6.430;2023-11-19T11:32:00;99702.97;;;19.09;54.62
19286;BME280;9776;50.798;6.430;2023-11-19T11:35:00;99684.94;;;19.22;53.74
19286;BME280;9776;50.798;6.430;2023-11-19T11:37:37;99686.09;;;19.88;52.60
19286;BME280;9776;50.798;6.430;2023-11-19T11:40:06;99678.56;;;20.14;51.75
19286;BME280;9776;50.798;6.430;2023-11-19T11:42:41;99676.31;;;20.41;51.04
19286;BME280;9776;50.798;6.430;2023-11-19T11:45:08;99679.09;;;20.76;50.45
19286;BME280;9776;50.798;6.430;2023-11-19T11:48:06;99676.94;;;21.08;49.52
19286;BME280;9776;50.798;6.430;2023-11-19T11:50:57;99672.38;;;21.20;49.35
19286;BME280;9776;50.798;6.430;2023-11-19T11:53:25;99666.88;;;21.49;48.61
19286;BME280;9776;50.798;6.430;2023-11-19T11:55:57;99669.97;;;21.81;47.93
19286;BME280;9776;50.798;6.430;2023-11-19T11:58:31;99674.00;;;21.56;48.03
19286;BME280;9776;50.798;6.430;2023-11-19T12:01:01;99661.47;;;20.57;48.95
19286;BME280;9776;50.798;6.430;2023-11-19T12:03:29;99668.31;;;19.93;49.94
19286;BME280;9776;50.798;6.430;2023-11-19T12:05:58;99673.63;;;19.63;50.21
19286;BME280;9776;50.798;6.430;2023-11-19T12:08:28;99680.38;;;19.66;50.28
19286;BME280;9776;50.798;6.430;2023-11-19T12:10:56;99667.16;;;19.53;50.37
19286;BME280;9776;50.798;6.430;2023-11-19T12:16:11;99672.25;;;19.36;50.40
19286;BME280;9776;50.798;6.430;2023-11-19T12:18:39;99669.50;;;19.24;50.39
19286;BME280;9776;50.798;6.430;2023-11-19T12:21:09;99673.06;;;19.18;50.52
19286;BME280;9776;50.798;6.430;2023-11-19T12:23:46;99671.25;;;18.63;51.72
19286;BME280;9776;50.798;6.430;2023-11-19T12:26:34;99650.00;;;17.74;53.33
19286;BME280;9776;50.798;6.430;2023-11-19T12:29:01;99661.50;;;17.75;53.90
19286;BME280;9776;50.798;6.430;2023-11-19T12:31:32;99660.00;;;18.79;52.00
19286;BME280;9776;50.798;6.430;2023-11-19T12:34:12;99655.25;;;19.49;50.64
19286;BME280;9776;50.798;6.430;2023-11-19T12:36:43;99651.59;;;20.27;48.92
19286;BME280;9776;50.798;6.430;2023-11-19T12:39:10;99662.50;;;20.56;47.83
19286;BME280;9776;50.798;6.430;2023-11-19T12:41:50;99658.03;;;20.08;48.95
19286;BME280;9776;50.798;6.430;2023-11-19T12:44:23;99655.47;;;20.31;48.57
19286;BME280;9776;50.798;6.430;2023-11-19T12:47:03;99652.38;;;21.04;47.28
19286;BME280;9776;50.798;6.430;2023-11-19T12:49:31;99654.16;;;21.85;45.94
19286;BME280;9776;50.798;6.430;2023-11-19T12:52:00;99646.81;;;22.20;44.95
19286;BME280;9776;50.798;6.430;2023-11-19T12:54:34;99641.13;;;22.33;44.74
19286;BME280;9776;50.798;6.430;2023-11-19T12:57:03;99638.59;;;22.27;44.64
19286;BME280;9776;50.798;6.430;2023-11-19T12:59:32;99646.38;;;21.72;44.92
19286;BME280;9776;50.798;6.430;2023-11-19T13:02:00;99635.69;;;21.48;45.36
19286;BME280;9776;50.798;6.430;2023-11-19T13:04:29;99630.59;;;21.01;46.02
19286;BME280;9776;50.798;6.430;2023-11-19T13:06:57;99620.47;;;20.26;47.54
19286;BME280;9776;50.798;6.430;2023-11-19T13:09:26;99633.00;;;20.14;47.74
19286;BME280;9776;50.798;6.430;2023-11-19T13:11:58;99628.69;;;20.13;47.31
19286;BME280;9776;50.798;6.430;2023-11-19T13:14:36;99637.34;;;19.97;47.33
19286;BME280;9776;50.798;6.430;2023-11-19T13:17:04;99623.16;;;19.97;47.24
19286;BME280;9776;50.798;6.430;2023-11-19T13:19:31;99630.28;;;20.03;47.13
19286;BME280;9776;50.798;6.430;2023-11-19T13:21:58;99630.06;;;19.86;47.29